createdAt,value
2023-02-19T00:01:42.768Z,8.77
2023-02-19T00:04:17.958Z,8.28
2023-02-19T00:06:46.200Z,8.26
2023-02-19T00:09:15.879Z,8.50
2023-02-19T00:11:42.861Z,8.53
2023-02-19T00:14:11.422Z,8.56
2023-02-19T00:16:39.923Z,8.55
2023-02-19T00:19:08.993Z,8.57
2023-02-19T00:21:37.501Z,8.60
2023-02-19T00:24:06.789Z,8.63
2023-02-19T00:26:35.107Z,8.51
2023-02-19T00:29:01.995Z,8.54
2023-02-19T00:31:34.153Z,8.71
2023-02-19T00:34:03.943Z,8.61
2023-02-19T00:36:35.008Z,8.68
2023-02-19T00:39:01.685Z,8.72
2023-02-19T00:41:29.028Z,8.57
2023-02-19T00:43:58.436Z,8.72
2023-02-19T00:46:44.450Z,8.66
2023-02-19T00:49:16.489Z,8.71
2023-02-19T00:51:42.964Z,8.58
2023-02-19T00:54:10.945Z,8.51
2023-02-19T00:56:37.392Z,8.63
2023-02-19T00:59:04.473Z,8.55
2023-02-19T01:01:36.963Z,8.48
2023-02-19T01:04:06.263Z,8.40
2023-02-19T01:06:34.650Z,8.41
2023-02-19T01:09:01.100Z,8.41
2023-02-19T01:11:27.792Z,8.29
2023-02-19T01:13:58.428Z,8.25
2023-02-19T01:16:25.279Z,8.51
2023-02-19T01:18:51.851Z,8.50
2023-02-19T01:21:22.079Z,8.30
2023-02-19T01:23:49.719Z,8.28
2023-02-19T01:26:23.061Z,8.33
2023-02-19T01:28:49.764Z,8.62
2023-02-19T01:31:19.267Z,8.55
2023-02-19T01:34:00.478Z,8.45
2023-02-19T01:36:27.803Z,8.27
2023-02-19T01:38:54.353Z,8.41
2023-02-19T01:41:23.652Z,8.52
2023-02-19T01:44:11.251Z,8.48
2023-02-19T01:46:40.376Z,8.58
2023-02-19T01:49:10.336Z,8.52
2023-02-19T01:51:41.630Z,8.33
2023-02-19T01:54:12.210Z,8.53
2023-02-19T01:56:42.675Z,8.56
2023-02-19T01:59:10.411Z,8.47
2023-02-19T02:01:39.974Z,8.52
2023-02-19T02:04:08.361Z,8.47
2023-02-19T02:06:43.766Z,8.30
2023-02-19T02:09:29.317Z,8.45
2023-02-19T02:11:55.844Z,8.36
2023-02-19T02:14:27.407Z,8.31
2023-02-19T02:17:07.362Z,8.31
2023-02-19T02:19:52.056Z,8.31
2023-02-19T02:22:24.225Z,8.33
2023-02-19T02:25:39.841Z,8.24
2023-02-19T02:28:43.983Z,8.27
2023-02-19T02:31:19.386Z,8.32
2023-02-19T02:34:00.869Z,8.23
2023-02-19T02:36:36.178Z,8.20
2023-02-19T02:39:07.209Z,8.36
2023-02-19T02:41:34.029Z,8.27
2023-02-19T02:44:00.496Z,8.25
2023-02-19T02:46:34.945Z,8.07
2023-02-19T02:49:18.966Z,8.20
2023-02-19T02:51:49.643Z,8.19
2023-02-19T02:54:41.286Z,8.27
2023-02-19T02:57:09.627Z,8.23
2023-02-19T02:59:39.722Z,8.07
2023-02-19T03:02:23.434Z,8.20
2023-02-19T03:05:20.678Z,8.10
2023-02-19T03:07:53.080Z,8.14
2023-02-19T03:10:36.187Z,7.88
2023-02-19T03:13:23.961Z,7.93
2023-02-19T03:16:16.960Z,7.99
2023-02-19T03:19:07.800Z,7.98
2023-02-19T03:21:38.245Z,7.85
2023-02-19T03:24:25.767Z,8.01
2023-02-19T03:26:54.161Z,7.75
2023-02-19T03:29:25.819Z,8.13
2023-02-19T03:31:55.912Z,8.00
2023-02-19T03:34:37.272Z,7.84
2023-02-19T03:37:13.683Z,7.95
2023-02-19T03:39:44.453Z,8.06
2023-02-19T03:42:19.009Z,8.11
2023-02-19T03:44:53.958Z,8.02
2023-02-19T03:47:30.851Z,7.99
2023-02-19T03:50:16.398Z,8.06
2023-02-19T03:52:58.133Z,8.07
2023-02-19T03:55:48.311Z,7.96
2023-02-19T03:58:21.017Z,7.90
2023-02-19T04:01:23.030Z,8.26
2023-02-19T04:03:59.352Z,8.23
2023-02-19T04:06:28.856Z,7.85
2023-02-19T04:09:00.154Z,7.85
2023-02-19T04:11:30.609Z,8.11
2023-02-19T04:14:17.999Z,8.16
2023-02-19T04:16:49.547Z,8.00
2023-02-19T04:19:21.026Z,8.13
2023-02-19T04:21:50.435Z,7.98
2023-02-19T04:24:24.369Z,7.95
2023-02-19T04:26:51.495Z,8.08
2023-02-19T04:29:17.978Z,8.16
2023-02-19T04:31:44.393Z,8.20
2023-02-19T04:34:16.131Z,8.08
2023-02-19T04:36:42.648Z,8.04
2023-02-19T04:39:11.100Z,8.26
2023-02-19T04:41:37.674Z,7.97
2023-02-19T04:44:04.257Z,8.10
2023-02-19T04:46:32.458Z,7.87
2023-02-19T04:48:58.887Z,8.05
2023-02-19T04:51:25.391Z,7.95
2023-02-19T04:53:51.910Z,8.15
2023-02-19T04:56:18.754Z,8.05
2023-02-19T04:58:45.551Z,8.09
2023-02-19T05:01:12.881Z,8.14
2023-02-19T05:03:39.714Z,8.13
2023-02-19T05:06:09.638Z,8.15
2023-02-19T05:08:36.341Z,7.99
2023-02-19T05:11:05.405Z,8.18
2023-02-19T05:13:34.642Z,8.32
2023-02-19T05:16:04.092Z,8.33
2023-02-19T05:18:31.088Z,8.08
2023-02-19T05:21:02.000Z,8.28
2023-02-19T05:23:28.971Z,8.35
2023-02-19T05:25:55.575Z,8.33
2023-02-19T05:28:28.924Z,8.33
2023-02-19T05:30:57.479Z,8.15
2023-02-19T05:33:25.977Z,8.34
2023-02-19T05:35:54.917Z,8.30
2023-02-19T05:38:22.602Z,8.43
2023-02-19T05:40:49.146Z,8.32
2023-02-19T05:43:16.470Z,8.38
2023-02-19T05:45:43.707Z,8.42
2023-02-19T05:48:10.872Z,8.35
2023-02-19T05:50:39.699Z,8.43
2023-02-19T05:53:06.553Z,8.35
2023-02-19T05:55:36.780Z,8.35
2023-02-19T05:58:03.831Z,8.40
2023-02-19T06:00:33.927Z,8.27
2023-02-19T06:03:01.099Z,8.24
2023-02-19T06:05:27.605Z,8.40
2023-02-19T06:07:54.067Z,8.16
2023-02-19T06:10:20.596Z,8.16
2023-02-19T06:12:46.976Z,8.14
2023-02-19T06:15:13.436Z,8.09
2023-02-19T06:17:39.936Z,8.29
2023-02-19T06:20:06.924Z,8.24
2023-02-19T06:22:33.565Z,8.16
2023-02-19T06:25:01.124Z,8.10
2023-02-19T06:27:28.212Z,8.16
2023-02-19T06:29:54.641Z,8.04
2023-02-19T06:32:21.290Z,8.04
2023-02-19T06:34:47.859Z,8.04
2023-02-19T06:37:14.382Z,8.21
2023-02-19T06:39:40.975Z,8.00
2023-02-19T06:42:07.519Z,8.10
2023-02-19T06:44:34.002Z,8.13
2023-02-19T06:47:02.272Z,8.11
2023-02-19T06:49:28.863Z,8.16
2023-02-19T06:51:55.426Z,7.88
2023-02-19T06:54:21.972Z,8.10
2023-02-19T06:56:48.399Z,8.04
2023-02-19T06:59:18.678Z,8.00
2023-02-19T07:01:45.769Z,8.01
2023-02-19T07:04:12.379Z,8.11
2023-02-19T07:06:38.983Z,8.16
2023-02-19T07:09:06.915Z,8.32
2023-02-19T07:11:35.101Z,8.14
2023-02-19T07:14:04.674Z,8.16
2023-02-19T07:16:31.290Z,8.31
2023-02-19T07:18:59.859Z,8.06
2023-02-19T07:21:28.661Z,8.15
2023-02-19T07:23:55.605Z,8.31
2023-02-19T07:26:22.788Z,8.35
2023-02-19T07:28:51.145Z,8.26
2023-02-19T07:31:19.811Z,8.46
2023-02-19T07:33:47.420Z,8.21
2023-02-19T07:36:16.923Z,8.33
2023-02-19T07:38:44.088Z,8.26
2023-02-19T07:41:11.242Z,8.56
2023-02-19T07:43:39.176Z,8.85
2023-02-19T07:46:11.355Z,8.65
2023-02-19T07:48:41.332Z,8.61
2023-02-19T07:51:12.261Z,8.54
2023-02-19T07:53:38.885Z,8.52
2023-02-19T07:56:07.671Z,8.46
2023-02-19T07:58:34.718Z,8.54
2023-02-19T08:01:45.909Z,8.61
2023-02-19T08:04:16.702Z,8.48
2023-02-19T08:06:43.641Z,8.58
2023-02-19T08:09:11.720Z,8.54
2023-02-19T08:11:56.592Z,8.63
2023-02-19T08:14:27.642Z,8.45
2023-02-19T08:16:54.498Z,8.48
2023-02-19T08:19:21.238Z,8.52
2023-02-19T08:21:47.702Z,8.48
2023-02-19T08:24:14.117Z,8.47
2023-02-19T08:26:40.604Z,8.55
2023-02-19T08:29:08.097Z,8.72
2023-02-19T08:31:35.281Z,8.42
2023-02-19T08:34:02.429Z,8.69
2023-02-19T08:36:29.249Z,8.70
2023-02-19T08:38:55.910Z,8.74
2023-02-19T08:41:22.569Z,8.87
2023-02-19T08:43:49.683Z,9.05
2023-02-19T08:46:17.303Z,9.01
2023-02-19T08:48:43.801Z,8.90
2023-02-19T08:51:12.209Z,8.99
2023-02-19T08:53:40.188Z,9.12
2023-02-19T08:56:08.497Z,9.11
2023-02-19T08:58:36.090Z,8.84
2023-02-19T09:01:02.936Z,8.98
2023-02-19T09:03:29.472Z,9.01
2023-02-19T09:05:55.918Z,9.01
2023-02-19T09:08:22.524Z,9.03
2023-02-19T09:11:01.416Z,9.02
2023-02-19T09:13:28.407Z,9.15
2023-02-19T09:15:57.191Z,9.40
2023-02-19T09:18:24.716Z,9.29
2023-02-19T09:20:51.321Z,9.31
2023-02-19T09:23:17.838Z,9.14
2023-02-19T09:25:44.283Z,9.32
2023-02-19T09:28:11.876Z,9.16
2023-02-19T09:30:41.319Z,9.24
2023-02-19T09:33:07.785Z,9.19
2023-02-19T09:35:34.221Z,9.13
2023-02-19T09:51:02.951Z,9.57
2023-02-19T09:53:40.709Z,9.58
2023-02-19T09:56:07.746Z,9.28
2023-02-19T09:58:48.194Z,9.38
2023-02-19T10:01:19.050Z,9.50
2023-02-19T10:03:47.998Z,9.22
2023-02-19T10:06:26.572Z,9.27
2023-02-19T10:08:59.947Z,9.24
2023-02-19T10:11:29.417Z,9.17
2023-02-19T10:14:09.933Z,9.05
2023-02-19T10:16:44.937Z,9.12
2023-02-19T10:19:15.616Z,9.08
2023-02-19T10:21:42.763Z,9.19
2023-02-19T10:24:19.691Z,9.12
2023-02-19T10:26:46.218Z,8.93
2023-02-19T10:29:12.774Z,8.81
2023-02-19T10:31:39.372Z,9.18
2023-02-19T10:34:18.344Z,9.11
2023-02-19T10:36:48.562Z,9.08
2023-02-19T10:39:48.015Z,9.22
2023-02-19T10:42:23.043Z,9.25
2023-02-19T10:44:58.460Z,9.54
2023-02-19T10:47:27.296Z,9.83
2023-02-19T10:49:58.972Z,10.25
2023-02-19T10:52:30.258Z,9.91
2023-02-19T10:55:15.664Z,9.70
2023-02-19T10:57:42.436Z,9.88
2023-02-19T11:00:14.903Z,9.88
2023-02-19T11:02:43.412Z,9.74
2023-02-19T11:05:09.805Z,9.52
2023-02-19T11:07:38.014Z,9.55
2023-02-19T11:10:07.078Z,9.50
2023-02-19T11:12:34.861Z,9.33
2023-02-19T11:15:22.020Z,9.36
2023-02-19T11:18:16.079Z,9.38
2023-02-19T11:20:50.098Z,9.47
2023-02-19T11:23:24.860Z,9.44
2023-02-19T11:25:54.060Z,9.32
2023-02-19T11:28:29.605Z,9.50
2023-02-19T11:31:14.412Z,9.36
2023-02-19T11:33:53.338Z,9.45
2023-02-19T11:36:37.492Z,9.62
2023-02-19T11:39:10.015Z,9.65
2023-02-19T11:42:11.297Z,9.79
2023-02-19T11:44:57.369Z,10.10
2023-02-19T11:47:42.341Z,10.45
2023-02-19T11:50:15.645Z,10.22
2023-02-19T11:52:54.776Z,10.39
2023-02-19T11:55:48.800Z,10.06
2023-02-19T11:58:49.828Z,10.14
2023-02-19T12:01:39.150Z,10.26
2023-02-19T12:04:38.779Z,10.24
2023-02-19T12:07:25.300Z,9.95
2023-02-19T12:10:04.428Z,10.28
2023-02-19T12:12:57.298Z,10.07
2023-02-19T12:15:45.317Z,10.21
2023-02-19T12:18:41.620Z,10.24
2023-02-19T12:21:11.280Z,10.30
2023-02-19T12:23:47.875Z,10.43
2023-02-19T12:26:40.173Z,10.22
2023-02-19T12:29:28.459Z,10.19
2023-02-19T12:32:17.057Z,10.24
2023-02-19T12:35:04.842Z,10.09
2023-02-19T12:38:13.847Z,10.02
2023-02-19T12:41:10.521Z,9.80
2023-02-19T12:43:58.724Z,9.61
2023-02-19T12:46:32.424Z,9.64
2023-02-19T12:49:11.151Z,9.69
2023-02-19T12:51:50.598Z,9.55
2023-02-19T12:54:25.746Z,9.63
2023-02-19T12:57:04.481Z,9.80
2023-02-19T12:59:40.910Z,9.75
2023-02-19T13:02:19.925Z,9.86
2023-02-19T13:05:23.316Z,9.64
2023-02-19T13:08:34.647Z,9.90
2023-02-19T13:11:15.431Z,10.03
2023-02-19T13:13:50.587Z,9.77
2023-02-19T13:16:20.559Z,10.22
2023-02-19T13:18:51.003Z,9.70
2023-02-19T13:21:38.605Z,9.85
2023-02-19T13:24:11.194Z,9.95
2023-02-19T13:26:46.115Z,9.87
2023-02-19T13:29:38.228Z,9.69
2023-02-19T13:32:38.782Z,9.65
2023-02-19T13:35:30.130Z,9.70
2023-02-19T13:38:01.603Z,9.49
2023-02-19T13:40:54.359Z,9.60
2023-02-19T13:43:26.079Z,9.85
2023-02-19T13:45:57.389Z,9.48
2023-02-19T13:48:23.917Z,9.67
2023-02-19T13:51:11.162Z,9.64
2023-02-19T13:53:40.692Z,9.47
2023-02-19T13:56:34.761Z,9.62
2023-02-19T13:59:35.093Z,9.64
2023-02-19T14:02:01.518Z,9.77
2023-02-19T14:04:57.132Z,9.56
2023-02-19T14:07:37.571Z,9.50
2023-02-19T14:10:08.489Z,9.53
2023-02-19T14:12:36.966Z,9.64
2023-02-19T14:15:25.294Z,9.63
2023-02-19T14:17:51.931Z,9.73
2023-02-19T14:20:18.367Z,9.73
2023-02-19T14:22:44.834Z,9.77
2023-02-19T14:25:35.898Z,9.57
2023-02-19T14:28:04.325Z,9.56
2023-02-19T14:30:34.406Z,9.47
2023-02-19T14:33:10.643Z,9.49
2023-02-19T14:35:41.609Z,9.54
2023-02-19T14:38:17.907Z,9.30
2023-02-19T14:40:47.093Z,9.38
2023-02-19T14:43:16.350Z,9.47
2023-02-19T14:45:47.284Z,9.37
2023-02-19T14:48:38.781Z,9.35
2023-02-19T14:51:14.970Z,9.34
2023-02-19T14:53:44.872Z,9.49
2023-02-19T14:56:24.788Z,9.60
2023-02-19T14:59:17.146Z,9.42
2023-02-19T15:01:43.693Z,9.27
2023-02-19T15:04:22.657Z,9.32
2023-02-19T15:06:49.500Z,9.54
2023-02-19T15:09:16.660Z,9.62
2023-02-19T15:11:43.844Z,9.67
2023-02-19T15:14:20.636Z,9.74
2023-02-19T15:16:57.408Z,9.69
2023-02-19T15:19:24.091Z,9.75
2023-02-19T15:21:50.899Z,9.44
2023-02-19T15:24:19.047Z,9.61
2023-02-19T15:26:50.885Z,9.45
2023-02-19T15:29:23.421Z,9.53
2023-02-19T15:31:58.382Z,9.54
2023-02-19T15:34:27.612Z,9.41
2023-02-19T15:37:00.322Z,9.25
2023-02-19T15:39:37.810Z,9.37
2023-02-19T15:42:06.308Z,9.31
2023-02-19T15:44:40.299Z,9.55
2023-02-19T15:47:15.858Z,9.38
2023-02-19T15:50:17.710Z,9.48
2023-02-19T15:52:54.946Z,9.45
2023-02-19T15:55:24.472Z,9.35
2023-02-19T15:58:14.672Z,9.44
2023-02-19T16:00:45.657Z,9.53
2023-02-19T16:03:19.313Z,9.41
2023-02-19T16:05:46.208Z,9.32
2023-02-19T16:08:12.550Z,9.41
2023-02-19T16:10:39.315Z,9.19
2023-02-19T16:13:09.596Z,9.15
2023-02-19T16:15:58.382Z,9.09
2023-02-19T16:18:25.066Z,9.10
2023-02-19T16:20:51.651Z,9.09
2023-02-19T16:23:24.008Z,9.15
2023-02-19T16:25:58.935Z,9.15
2023-02-19T16:28:27.265Z,9.06
2023-02-19T16:30:57.945Z,9.09
2023-02-19T16:33:33.605Z,9.06
2023-02-19T16:36:21.295Z,8.98
2023-02-19T16:39:06.848Z,9.02
2023-02-19T16:41:48.300Z,9.13
2023-02-19T16:44:28.173Z,9.04
2023-02-19T16:46:57.906Z,8.59
2023-02-19T16:49:24.790Z,8.84
2023-02-19T16:51:51.451Z,8.81
2023-02-19T16:54:17.951Z,8.95
2023-02-19T16:56:44.384Z,8.74
2023-02-19T16:59:10.821Z,8.78
2023-02-19T17:01:37.985Z,8.79
2023-02-19T17:04:08.108Z,8.77
2023-02-19T17:06:37.659Z,8.73
2023-02-19T17:09:06.512Z,8.79
2023-02-19T17:11:32.971Z,8.60
2023-02-19T17:13:59.477Z,8.62
2023-02-19T17:16:29.150Z,8.61
2023-02-19T17:18:56.098Z,8.71
2023-02-19T17:21:28.033Z,8.68
2023-02-19T17:23:55.809Z,8.78
2023-02-19T17:26:30.715Z,8.74
2023-02-19T17:28:58.476Z,8.65
2023-02-19T17:31:25.030Z,8.65
2023-02-19T17:33:55.943Z,8.61
2023-02-19T17:36:26.851Z,8.56
2023-02-19T17:38:54.894Z,8.59
2023-02-19T17:41:21.378Z,8.62
2023-02-19T17:43:48.246Z,8.73
2023-02-19T17:46:19.005Z,8.73
2023-02-19T17:48:45.675Z,8.55
2023-02-19T17:51:12.716Z,8.58
2023-02-19T17:53:39.673Z,8.66
2023-02-19T17:56:06.555Z,8.72
2023-02-19T17:58:42.883Z,8.73
2023-02-19T18:01:15.802Z,8.83
2023-02-19T18:03:44.416Z,8.68
2023-02-19T18:06:12.021Z,8.96
2023-02-19T18:08:39.313Z,8.84
2023-02-19T18:11:07.942Z,8.78
2023-02-19T18:13:35.355Z,8.61
2023-02-19T18:16:01.834Z,8.62
2023-02-19T18:18:28.502Z,8.54
2023-02-19T18:20:56.053Z,8.41
2023-02-19T18:23:22.688Z,8.44
2023-02-19T18:25:49.248Z,8.35
2023-02-19T18:28:16.518Z,8.24
2023-02-19T18:30:44.275Z,8.18
2023-02-19T18:33:13.227Z,8.17
2023-02-19T18:35:40.729Z,8.16
2023-02-19T18:38:07.352Z,8.24
2023-02-19T18:40:44.103Z,8.26
2023-02-19T18:43:10.717Z,8.23
2023-02-19T18:45:39.679Z,8.22
2023-02-19T18:48:06.366Z,8.19
2023-02-19T18:50:34.977Z,8.14
2023-02-19T18:53:01.719Z,8.04
2023-02-19T18:55:30.344Z,7.93
2023-02-19T18:57:58.808Z,7.87
2023-02-19T19:00:26.526Z,7.88
2023-02-19T19:02:57.584Z,8.03
2023-02-19T19:05:24.260Z,7.92
2023-02-19T19:07:55.461Z,7.82
2023-02-19T19:10:23.712Z,7.81
2023-02-19T19:12:50.696Z,7.85
2023-02-19T19:15:18.595Z,7.94
2023-02-19T19:17:45.504Z,7.84
2023-02-19T19:20:12.256Z,8.01
2023-02-19T19:22:39.075Z,7.93
2023-02-19T19:25:06.370Z,7.88
2023-02-19T19:27:32.782Z,7.85
2023-02-19T19:29:59.726Z,7.82
2023-02-19T19:32:26.248Z,7.89
2023-02-19T19:34:52.794Z,7.80
2023-02-19T19:37:19.300Z,7.83
2023-02-19T19:39:45.803Z,7.81
2023-02-19T19:42:12.710Z,7.88
2023-02-19T19:44:44.409Z,7.90
2023-02-19T19:47:12.950Z,7.88
2023-02-19T19:49:41.028Z,7.88
2023-02-19T19:52:08.357Z,7.95
2023-02-19T19:54:34.851Z,7.94
2023-02-19T19:57:01.602Z,7.97
2023-02-19T19:59:28.159Z,8.02
2023-02-19T20:01:57.893Z,7.96
2023-02-19T20:04:25.268Z,7.99
2023-02-19T20:06:52.200Z,8.07
2023-02-19T20:09:20.719Z,7.97
2023-02-19T20:11:51.208Z,7.96
2023-02-19T20:14:20.200Z,7.93
2023-02-19T20:16:47.690Z,7.94
2023-02-19T20:19:15.560Z,7.79
2023-02-19T20:21:50.251Z,7.88
2023-02-19T20:24:24.242Z,7.84
2023-02-19T20:26:53.754Z,7.94
2023-02-19T20:29:21.305Z,7.85
2023-02-19T20:31:50.139Z,7.90
2023-02-19T20:34:17.706Z,7.93
2023-02-19T20:36:46.264Z,7.87
2023-02-19T20:39:13.783Z,7.96
2023-02-19T20:41:44.157Z,7.86
2023-02-19T20:44:10.732Z,7.92
2023-02-19T20:46:42.626Z,7.83
2023-02-19T20:49:09.516Z,7.82
2023-02-19T20:51:47.400Z,7.88
2023-02-19T20:54:16.613Z,7.90
2023-02-19T20:56:52.978Z,7.90
2023-02-19T20:59:26.590Z,7.92
2023-02-19T21:01:53.273Z,7.88
2023-02-19T21:04:19.847Z,7.90
2023-02-19T21:06:46.422Z,7.87
2023-02-19T21:09:19.393Z,7.92
2023-02-19T21:11:46.723Z,7.94
2023-02-19T21:14:14.485Z,7.91
2023-02-19T21:16:40.993Z,7.80
2023-02-19T21:19:08.886Z,7.62
2023-02-19T21:21:35.450Z,7.51
2023-02-19T21:24:02.603Z,7.40
2023-02-19T21:26:40.099Z,7.45
2023-02-19T21:29:10.658Z,7.64
2023-02-19T21:31:45.955Z,7.47
2023-02-19T21:34:14.642Z,7.53
2023-02-19T21:36:41.852Z,7.58
2023-02-19T21:39:10.040Z,7.58
2023-02-19T21:41:36.557Z,7.66
2023-02-19T21:44:03.339Z,7.71
2023-02-19T21:46:29.934Z,7.70
2023-02-19T21:48:57.008Z,7.87
2023-02-19T21:51:29.526Z,7.85
2023-02-19T21:53:55.965Z,7.80
2023-02-19T21:56:27.132Z,7.74
2023-02-19T21:58:53.716Z,7.76
2023-02-19T22:01:25.074Z,7.75
2023-02-19T22:03:51.760Z,7.83
2023-02-19T22:06:19.045Z,7.85
2023-02-19T22:08:45.708Z,7.81
2023-02-19T22:11:12.182Z,7.87
2023-02-19T22:13:39.644Z,7.66
2023-02-19T22:16:06.864Z,7.72
2023-02-19T22:18:33.637Z,7.67
2023-02-19T22:21:00.529Z,7.78
2023-02-19T22:23:27.013Z,7.78
2023-02-19T22:25:53.505Z,7.70
2023-02-19T22:28:20.238Z,7.70
2023-02-19T22:30:46.872Z,7.78
2023-02-19T22:33:13.494Z,7.81
2023-02-19T22:35:39.973Z,7.76
2023-02-19T22:38:06.425Z,7.73
2023-02-19T22:40:32.854Z,7.83
2023-02-19T22:43:01.301Z,7.83
2023-02-19T22:45:27.824Z,7.85
2023-02-19T22:47:55.983Z,7.81
2023-02-19T22:50:23.264Z,7.83
2023-02-19T22:52:50.425Z,7.74
2023-02-19T22:55:18.526Z,7.77
2023-02-19T22:57:45.037Z,7.70
2023-02-19T23:00:21.071Z,7.74
2023-02-19T23:02:48.961Z,7.71
2023-02-19T23:05:19.741Z,7.70
2023-02-19T23:07:51.017Z,7.84
2023-02-19T23:10:17.602Z,7.59
2023-02-19T23:12:44.121Z,7.66
2023-02-19T23:15:11.308Z,7.59
2023-02-19T23:17:40.026Z,7.64
2023-02-19T23:20:07.291Z,7.45
2023-02-19T23:22:35.129Z,7.48
2023-02-19T23:25:01.796Z,7.48
2023-02-19T23:27:28.678Z,7.28
2023-02-19T23:29:56.641Z,7.22
2023-02-19T23:32:23.815Z,7.34
2023-02-19T23:34:51.066Z,7.58
2023-02-19T23:37:17.992Z,7.34
2023-02-19T23:39:44.679Z,7.50
2023-02-19T23:42:16.606Z,7.48
2023-02-19T23:44:47.037Z,7.31
2023-02-19T23:47:14.415Z,7.44
2023-02-19T23:49:41.400Z,7.57
2023-02-19T23:52:07.925Z,7.65
2023-02-19T23:54:40.611Z,7.66
2023-02-19T23:57:07.079Z,7.57
2023-02-19T23:59:33.557Z,7.30
